Time;durP1;ratioP1;P1;durP2;ratioP2;P2;SDS_P1;SDS_P2;PMS_P1;PMS_P2;Temp;Humidity;BMP_temperature;BMP_pressure;BME280_temperature;BME280_humidity;BME280_pressure;Samples;Min_cycle;Max_cycle;Signal;HPM_P1;HPM_P2
2021/07/16 10:21:41;;;;;;;;;;;;;;;;;;;;;
2021/07/16 10:28:45;;;;;;;;;;;;;;;;;;;;;
2021/07/16 10:35:58;;;;;;;;;;;;;;;;;;;;;
2021/07/16 10:39:01;;;;;;;14.80;8.60;;;;;;;30.93;38.00;93324.50;6014989;23;20024;-93
2021/07/16 10:45:03;;;;;;;15.10;9.55;;;;;;;30.55;38.39;93256.84;6023764;23;20030;-92
2021/07/16 10:48:18;;;;;;;;;;;;;;;;;;;;;
2021/07/16 11:09:42;;;;;;;;;;;;;;;;;;;;;
2021/07/16 11:19:35;;;;;;;;;;;;;;;;;;;;;
2021/07/16 11:26:44;;;;;;;10.55;8.55;;;;;;;31.82;36.55;93350.19;5833676;24;20109;-93
2021/07/16 11:32:50;;;;;;;12.32;8.95;;;;;;;31.91;37.43;93347.63;5863799;24;20032;-94
2021/07/16 11:35:37;;;;;;;;;;;;;;;;;;;;;
2021/07/16 11:38:17;;;;;;;14.55;8.20;;;;;;;31.92;36.32;93340.16;6108157;23;20132;-93
2021/07/16 11:41:00;;;;;;;16.48;9.27;;;;;;;30.47;36.00;93119.19;6091585;23;20414;-94
2021/07/16 11:43:47;;;;;;;11.52;8.48;;;;;;;31.11;36.45;93215.66;6040514;23;20198;-93
2021/07/16 11:46:45;;;;;;;12.18;8.20;;;;;;;32.07;36.27;93328.38;6090845;23;20026;-93
2021/07/16 11:49:39;;;;;;;13.70;8.75;;;;;;;30.77;35.35;93126.16;6068300;23;20022;-93
2021/07/16 11:52:08;;;;;;;10.68;8.35;;;;;;;31.15;35.52;93178.09;6090696;23;20037;-93
2021/07/16 11:58:21;;;;;;;11.82;8.30;;;;;;;31.77;34.90;93239.50;6055127;23;20049;-92
2021/07/16 12:04:49;;;;;;;11.77;8.15;;;;;;;31.70;34.60;93187.03;6047495;23;20014;-93
2021/07/16 12:07:26;;;;;;;10.93;8.57;;;;;;;31.24;35.30;93109.97;6087429;23;20050;-93
2021/07/16 12:10:05;;;;;;;;;;;;;;;;;;;;;
2021/07/16 12:13:06;;;;;;;;;;;;;;;;;;;;;
2021/07/16 12:16:04;;;;;;;11.50;7.68;;;;;;;31.05;34.79;93080.94;6070239;23;20018;-93
2021/07/16 12:19:07;;;;;;;9.27;7.15;;;;;;;32.45;34.57;93286.66;6003977;23;20008;-93
2021/07/16 12:22:03;;;;;;;10.68;8.25;;;;;;;32.09;34.53;93243.22;6020825;23;20030;-93
2021/07/16 12:24:40;;;;;;;13.45;7.53;;;;;;;31.54;34.84;93170.72;6056470;23;20141;-91
2021/07/16 12:27:19;;;;;;;10.27;7.70;;;;;;;30.74;33.65;93060.81;6098108;23;20045;-94
2021/07/16 12:30:00;;;;;;;10.85;8.43;;;;;;;31.33;34.20;93151.03;6063074;23;20540;-94
2021/07/16 12:33:08;;;;;;;11.55;8.30;;;;;;;32.25;33.98;93282.16;6085875;23;20014;-94
2021/07/16 12:35:44;;;;;;;10.98;7.93;;;;;;;31.38;33.50;93164.16;6052291;23;20010;-93
2021/07/16 12:42:07;;;;;;;9.95;8.93;;;;;;;32.20;33.28;93285.47;6080987;23;20109;-91
2021/07/16 12:45:03;;;;;;;13.95;8.13;;;;;;;32.34;34.69;93281.50;5950210;23;20007;-94
2021/07/16 12:48:27;;;;;;;;;;;;;;;;;;;;;
2021/07/16 12:51:09;;;;;;;13.45;8.35;;;;;;;32.32;32.99;93277.66;6052420;23;20141;-94
2021/07/16 12:54:01;;;;;;;11.52;7.53;;;;;;;32.32;32.70;93272.19;6051536;23;20463;-93
2021/07/16 12:56:53;;;;;;;11.10;6.90;;;;;;;31.81;33.04;93187.50;6073646;23;20022;-92
2021/07/16 13:00:00;;;;;;;;;;;;;;;;;;;;;
2021/07/16 13:02:25;;;;;;;10.57;8.15;;;;;;;31.92;33.08;93185.16;6096935;23;20018;-93
2021/07/16 13:05:10;;;;;;;9.02;7.10;;;;;;;30.72;32.70;93014.09;6084932;23;20010;-91
2021/07/16 13:07:39;;;;;;;13.02;7.15;;;;;;;31.87;32.47;93176.75;6092183;23;20009;-91
2021/07/16 13:10:23;;;;;;;15.95;8.05;;;;;;;31.68;32.58;93164.84;6097347;23;20049;-91
2021/07/16 13:13:32;;;;;;;9.02;6.43;;;;;;;30.92;33.35;93025.56;6087514;23;20028;-94
2021/07/16 13:17:06;;;;;;;19.13;6.75;;;;;;;31.92;32.39;93159.81;6076641;23;20192;-93
2021/07/16 13:19:53;;;;;;;17.55;7.57;;;;;;;31.17;32.90;93058.34;5915179;24;20183;-95
2021/07/16 13:22:26;;;;;;;9.57;6.55;;;;;;;30.90;32.92;93014.31;5994191;23;20052;-93
2021/07/16 13:25:06;;;;;;;9.65;6.95;;;;;;;32.31;33.05;93221.44;6072497;23;20098;-91
2021/07/16 13:31:17;;;;;;;14.60;6.75;;;;;;;32.51;32.82;93205.53;6007186;23;20027;-92
2021/07/16 13:34:37;;;;;;;;;;;;;;;;;;;;;
2021/07/16 13:37:12;;;;;;;11.35;7.38;;;;;;;31.09;33.32;92988.81;6106113;23;20022;-94
2021/07/16 13:50:42;;;;;;;8.57;6.45;;;;;;;31.28;32.28;92996.00;5917432;24;20027;-93
2021/07/16 13:54:03;;;;;;;14.07;6.70;;;;;;;31.51;31.67;93029.59;5941905;24;20164;-94
2021/07/16 13:57:21;;;;;;;;;;;;;;;;;;;;;
2021/07/16 14:03:23;;;;;;;11.38;6.10;;;;;;;31.07;32.67;92946.78;6010200;23;20281;-93
2021/07/16 14:09:39;;;;;;;13.00;7.05;;;;;;;31.11;32.49;92977.47;5961769;23;20051;-93
2021/07/16 14:16:04;;;;;;;;;;;;;;;;;;;;;
2021/07/16 14:18:58;;;;;;;13.77;6.38;;;;;;;30.83;33.62;92970.91;6033749;23;20474;-92
2021/07/16 14:22:01;;;;;;;;;;;;;;;;;;;;;
2021/07/16 14:24:54;;;;;;;14.50;6.43;;;;;;;31.92;32.77;93138.72;5953947;23;20028;-93
2021/07/16 14:27:26;;;;;;;9.68;6.22;;;;;;;32.25;33.28;93172.78;5996382;23;20446;-93
2021/07/16 14:29:55;;;;;;;13.98;6.50;;;;;;;30.96;33.52;92972.41;5990023;23;20020;-92
2021/07/16 14:32:34;;;;;;;;;;;;;;;;;;;;;
2021/07/16 14:35:23;;;;;;;;;;;;;;;;;;;;;
2021/07/16 14:41:17;;;;;;;12.57;6.00;;;;;;;31.61;33.75;93083.16;6002344;23;20023;-93
2021/07/16 14:44:05;;;;;;;9.13;5.82;;;;;;;32.19;33.56;93155.44;6041568;23;20018;-92
2021/07/16 14:47:03;;;;;;;10.18;6.65;;;;;;;31.57;34.02;93087.97;6086034;23;20014;-96
2021/07/16 14:49:49;;;;;;;;;;;;;;;;;;;;;
2021/07/16 14:52:50;;;;;;;10.32;5.55;;;;;;;31.57;33.59;93082.50;6055021;23;20022;-94
2021/07/16 14:55:16;;;;;;;12.77;6.30;;;;;;;31.29;34.08;93051.34;6076903;23;20018;-93
2021/07/16 14:58:20;;;;;;;13.95;7.15;;;;;;;30.28;34.02;92910.19;6010460;23;20022;-93
2021/07/16 15:17:47;;;;;;;8.82;6.05;;;;;;;31.30;33.45;93157.38;6102635;23;20033;-90
2021/07/16 15:23:39;;;;;;;9.07;5.82;;;;;;;30.19;33.12;93021.03;6047684;23;20521;-89
2021/07/16 15:26:11;;;;;;;10.20;5.63;;;;;;;29.44;33.40;92933.09;6069725;23;20017;-89
2021/07/16 15:29:40;;;;;;;11.50;5.07;;;;;;;29.43;33.81;92960.75;6081189;23;20511;-88
2021/07/16 15:32:20;;;;;;;7.68;5.22;;;;;;;29.70;34.26;93016.44;5969258;23;20838;-89
2021/07/16 15:35:40;;;;;;;7.28;5.50;;;;;;;28.90;34.66;92892.06;6046994;23;20006;-89
2021/07/16 15:38:09;;;;;;;17.63;6.18;;;;;;;29.57;35.31;93020.28;6038801;23;20022;-88
2021/07/16 15:41:14;;;;;;;11.75;7.03;;;;;;;29.35;35.22;92981.16;6103513;23;20005;-89
2021/07/16 15:43:39;;;;;;;10.05;5.57;;;;;;;29.29;35.46;92959.88;6081512;23;20130;-89
2021/07/16 15:46:05;;;;;;;13.32;6.78;;;;;;;29.85;35.71;93048.75;6050074;23;20486;-89
2021/07/16 15:48:33;;;;;;;7.80;5.78;;;;;;;29.01;35.52;92913.56;6113270;23;20761;-87
2021/07/16 15:51:10;;;;;;;8.82;5.90;;;;;;;30.11;36.12;93072.97;6063196;23;20172;-89
2021/07/16 15:54:29;;;;;;;7.30;5.28;;;;;;;30.27;36.11;93110.34;6055346;23;20017;-89
2021/07/16 15:57:21;;;;;;;10.48;5.70;;;;;;;30.52;36.47;93159.56;6061033;23;20083;-89
2021/07/16 16:00:04;;;;;;;14.43;6.32;;;;;;;29.32;36.23;92988.25;6049668;23;20224;-89
2021/07/16 16:02:32;;;;;;;13.35;7.47;;;;;;;29.74;36.90;93045.53;6069004;23;20109;-89
2021/07/16 16:05:26;;;;;;;8.25;5.82;;;;;;;29.04;36.45;92956.22;6061108;23;20016;-90
2021/07/16 16:08:51;;;;;;;7.00;6.07;;;;;;;30.14;37.48;93139.50;6050743;23;20001;-89
2021/07/16 16:11:36;;;;;;;;;;;;;;;;;;;;;
2021/07/16 16:14:30;;;;;;;13.73;6.03;;;;;;;29.60;37.02;93069.22;6093883;23;20017;-89
2021/07/16 16:17:21;;;;;;;10.68;5.65;;;;;;;30.10;37.29;93160.63;6041367;23;20066;-89
2021/07/16 16:19:46;;;;;;;8.95;5.13;;;;;;;28.58;37.84;92943.69;6085234;23;20016;-89
2021/07/16 16:22:24;;;;;;;7.50;5.55;;;;;;;29.07;37.10;93016.00;6083826;23;20017;-89
2021/07/16 16:24:57;;;;;;;9.20;5.47;;;;;;;29.25;37.35;93053.69;6057165;23;20313;-88
2021/07/16 16:27:29;;;;;;;10.30;5.53;;;;;;;28.85;37.49;93009.50;6113487;23;20035;-88
2021/07/16 16:30:18;;;;;;;;;;;;;;;;;;;;;
2021/07/16 16:32:55;;;;;;;14.98;6.25;;;;;;;29.03;37.23;93074.41;6081223;23;20062;-89
2021/07/16 16:35:21;;;;;;;7.25;6.38;;;;;;;28.89;37.21;93063.81;6082297;23;20016;-90
2021/07/16 16:41:11;;;;;;;18.75;6.88;;;;;;;28.20;37.25;92981.38;6048059;23;20019;-88
2021/07/16 16:43:37;;;;;;;14.65;6.00;;;;;;;29.33;37.08;93169.38;6084111;23;20010;-88
2021/07/16 16:46:03;;;;;;;12.10;5.97;;;;;;;27.71;37.39;92926.81;6081622;23;20018;-89
2021/07/16 19:29:59;;;;;;;11.48;6.97;;;;;;;25.41;45.55;93151.94;6059310;23;20061;-94
2021/07/16 20:14:20;;;;;;;;;;;;;;;;;;;;;
2021/07/16 20:17:07;;;;;;;;;;;;;;;;;;;;;
2021/07/16 20:23:28;;;;;;;10.77;8.00;;;;;;;23.97;51.13;93210.66;6210688;23;20035;-93
2021/07/16 20:26:47;;;;;;;11.65;7.72;;;;;;;24.25;51.51;93261.19;6225723;22;20202;-93
2021/07/16 20:30:16;;;;;;;9.32;6.68;;;;;;;23.51;51.58;93159.38;6185422;22;20144;-93
2021/07/16 20:32:47;;;;;;;10.32;8.52;;;;;;;23.10;51.43;93099.66;6141082;23;20000;-93
2021/07/16 20:39:32;;;;;;;12.65;8.07;;;;;;;24.67;52.51;93360.31;6241238;22;20118;-94
2021/07/16 20:42:19;;;;;;;12.52;7.38;;;;;;;24.19;52.15;93279.69;6221289;22;20458;-93
2021/07/16 20:44:55;;;;;;;11.63;8.15;;;;;;;23.01;52.88;93123.50;6239322;22;20141;-94
2021/07/16 20:47:42;;;;;;;12.40;8.00;;;;;;;22.79;53.85;93131.53;6208670;23;20037;-94
2021/07/16 20:50:46;;;;;;;12.65;7.97;;;;;;;23.41;53.27;93217.50;6217668;22;20000;-94
2021/07/16 20:53:29;;;;;;;;;;;;;;;;;;;;;
2021/07/16 20:56:24;;;;;;;9.80;7.32;;;;;;;24.19;53.88;93379.59;6212471;22;20011;-91
2021/07/16 20:58:57;;;;;;;;;;;;;;;24.26;53.99;93381.53;6198751;23;20092;-94
2021/07/16 21:02:22;;;;;;;7.80;6.78;;;;;;;23.67;54.95;93303.53;6237310;23;19935;-93
2021/07/16 21:05:38;;;;;;;;;;;;;;;;;;;;;
2021/07/16 21:08:37;;;;;;;;;;;;;;;;;;;;;
2021/07/16 21:12:02;;;;;;;10.52;8.10;;;;;;;23.97;56.00;93381.47;6205351;23;20011;-93
2021/07/16 21:17:39;;;;;;;10.45;7.68;;;;;;;22.45;56.29;93176.00;6229182;22;20009;-93
2021/07/16 21:20:25;;;;;;;20.98;8.90;;;;;;;23.02;57.20;93286.72;6230404;22;20000;-93
2021/07/16 21:23:18;;;;;;;10.77;8.40;;;;;;;23.10;57.19;93291.00;6225378;22;20004;-94
2021/07/16 21:26:23;;;;;;;14.73;8.75;;;;;;;22.33;58.62;93187.09;6227710;23;20008;-93
2021/07/16 21:32:43;;;;;;;9.45;8.18;;;;;;;21.98;59.54;93150.75;6196235;22;20117;-94
2021/07/16 21:35:51;;;;;;;;;;;;;;;;;;;;;
2021/07/16 21:38:26;;;;;;;13.05;9.15;;;;;;;22.82;60.67;93286.25;6248475;22;20016;-93
2021/07/16 21:41:03;;;;;;;11.00;9.43;;;;;;;23.63;61.13;93418.75;6239932;22;20055;-93
2021/07/16 21:44:15;;;;;;;10.75;9.15;;;;;;;22.49;61.29;93238.69;6211173;23;20481;-93
2021/07/16 21:46:50;;;;;;;13.32;8.65;;;;;;;23.53;62.67;93430.25;6228418;22;20026;-94
2021/07/16 21:49:15;;;;;;;;;;;;;;;23.64;61.91;93428.38;6218354;22;20025;-93
2021/07/16 21:52:27;;;;;;;16.33;9.63;;;;;;;23.09;62.77;93359.50;6261826;22;19915;-93
2021/07/16 21:58:02;;;;;;;11.05;8.80;;;;;;;22.24;62.53;93218.94;6261730;22;20122;-93
2021/07/16 22:00:30;;;;;;;11.48;8.27;;;;;;;23.04;63.15;93343.69;6255328;22;20591;-94
2021/07/16 22:03:24;;;;;;;;;;;;;;;;;;;;;
2021/07/16 22:06:07;;;;;;;11.88;8.65;;;;;;;22.04;63.64;93186.91;6269908;22;20011;-93
2021/07/16 22:09:07;;;;;;;12.75;8.73;;;;;;;21.70;64.25;93147.06;6252078;22;20011;-93
2021/07/16 22:11:57;;;;;;;14.10;8.88;;;;;;;23.16;64.82;93375.75;6249918;22;20017;-93
2021/07/16 22:15:06;;;;;;;10.35;8.10;;;;;;;23.03;64.42;93359.09;6263561;22;20439;-93
2021/07/16 22:17:23;;;;;;;13.20;9.68;;;;;;;21.87;64.23;93189.44;6255036;22;20020;-93
2021/07/16 22:20:46;;;;;;;10.63;7.72;;;;;;;21.91;64.69;93203.69;6262791;22;20003;-93
2021/07/16 22:24:21;;;;;;;;;;;;;;;;;;;;;
2021/07/16 22:27:07;;;;;;;9.52;7.88;;;;;;;23.17;66.17;93423.84;6131468;23;20016;-92
2021/07/16 22:30:00;;;;;;;9.80;7.45;;;;;;;22.06;66.40;93244.97;6256221;22;20019;-93
2021/07/16 22:32:48;;;;;;;12.57;7.78;;;;;;;21.68;66.43;93176.25;6258176;22;20187;-92
2021/07/16 22:35:19;;;;;;;7.45;6.80;;;;;;;21.88;66.07;93210.59;6251300;22;20031;-94
2021/07/16 22:38:14;;;;;;;11.27;6.88;;;;;;;22.38;66.96;93305.19;6261555;22;20003;-92
2021/07/16 22:41:07;;;;;;;9.40;6.93;;;;;;;21.79;67.18;93212.84;6255961;22;20031;-91
2021/07/16 22:43:41;;;;;;;7.10;6.43;;;;;;;23.19;66.88;93426.19;6253669;22;20345;-91
2021/07/16 22:46:09;;;;;;;11.40;7.50;;;;;;;21.49;67.29;93174.56;6238894;22;20462;-92
2021/07/16 22:48:37;;;;;;;8.57;6.68;;;;;;;22.09;67.34;93276.50;6266648;22;20441;-93
2021/07/16 22:51:06;;;;;;;7.75;6.55;;;;;;;21.39;67.32;93175.25;6261125;22;20023;-92
2021/07/16 22:53:32;;;;;;;8.52;7.45;;;;;;;22.24;67.10;93291.59;6222860;22;20543;-92
2021/07/16 22:56:14;;;;;;;8.23;6.50;;;;;;;23.10;67.46;93450.00;6236972;22;20007;-93
2021/07/16 22:58:43;;;;;;;11.65;7.03;;;;;;;23.04;67.80;93438.81;6234585;22;20597;-92
2021/07/16 23:01:12;;;;;;;8.82;6.53;;;;;;;21.43;67.55;93187.56;6227008;22;20034;-92
2021/07/16 23:03:43;;;;;;;8.48;6.45;;;;;;;22.34;67.98;93344.75;6246511;22;20458;-92
2021/07/16 23:06:17;;;;;;;6.70;5.90;;;;;;;20.91;68.30;93137.53;6242786;22;20070;-91
2021/07/16 23:08:44;;;;;;;8.27;6.20;;;;;;;23.03;68.07;93458.03;6261959;22;20023;-93
2021/07/16 23:11:10;;;;;;;7.00;5.50;;;;;;;21.80;68.42;93283.53;6234774;22;20015;-92
2021/07/16 23:14:05;;;;;;;7.88;6.25;;;;;;;22.25;68.93;93352.38;6260431;22;20007;-93
2021/07/16 23:16:51;;;;;;;6.28;5.40;;;;;;;21.16;68.86;93197.66;6214577;22;20019;-92
2021/07/16 23:19:49;;;;;;;5.60;5.05;;;;;;;21.41;68.89;93224.00;6235466;22;20007;-92
2021/07/16 23:22:17;;;;;;;9.70;5.97;;;;;;;21.95;68.83;93312.91;6221624;22;20020;-92
2021/07/16 23:24:43;;;;;;;7.57;6.18;;;;;;;20.74;69.28;93141.56;6263442;22;20406;-92
2021/07/16 23:27:14;;;;;;;6.65;5.35;;;;;;;21.63;69.05;93273.38;6292126;22;20093;-92
2021/07/16 23:30:23;;;;;;;9.40;6.57;;;;;;;22.42;69.48;93408.28;6275559;22;20014;-92
2021/07/16 23:32:57;;;;;;;6.72;5.90;;;;;;;20.85;69.34;93152.44;6278304;22;20135;-92
2021/07/16 23:35:46;;;;;;;8.55;6.45;;;;;;;22.00;69.56;93344.06;6261613;22;20038;-92
2021/07/16 23:38:12;;;;;;;13.27;6.88;;;;;;;20.35;69.63;93080.53;6213232;22;20015;-92
2021/07/16 23:40:53;;;;;;;8.32;6.15;;;;;;;21.66;70.33;93297.63;6255124;22;20019;-91
2021/07/16 23:44:12;;;;;;;11.60;6.65;;;;;;;21.21;70.28;93233.44;6260452;22;20019;-92
2021/07/16 23:47:11;;;;;;;7.13;5.32;;;;;;;21.23;70.44;93239.19;6220965;22;20015;-92
2021/07/16 23:50:18;;;;;;;7.68;5.53;;;;;;;20.54;70.23;93139.41;6285948;22;20019;-92
2021/07/16 23:52:44;;;;;;;7.80;6.00;;;;;;;20.61;70.44;93152.94;6106768;22;20170;-91
2021/07/16 23:55:34;;;;;;;7.25;5.25;;;;;;;20.97;70.26;93187.06;6256215;22;20014;-92
2021/07/16 23:58:18;;;;;;;7.88;5.68;;;;;;;22.33;70.08;93389.72;6226307;22;20103;-91
